sensor_id;sensor_type;location;lat;lon;timestamp;P1;durP1;ratioP1;P2;durP2;ratioP2
18776;SDS011;9517;51.174;4.160;2023-04-06T00:01:09;38.10;;;18.83;;
18776;SDS011;9517;51.174;4.160;2023-04-06T00:03:37;35.17;;;18.37;;
18776;SDS011;9517;51.174;4.160;2023-04-06T00:06:04;37.67;;;19.03;;
18776;SDS011;9517;51.174;4.160;2023-04-06T00:08:31;36.20;;;18.13;;
18776;SDS011;9517;51.174;4.160;2023-04-06T00:10:59;36.33;;;17.30;;
18776;SDS011;9517;51.174;4.160;2023-04-06T00:13:27;34.67;;;17.67;;
18776;SDS011;9517;51.174;4.160;2023-04-06T00:15:55;35.20;;;17.80;;
18776;SDS011;9517;51.174;4.160;2023-04-06T00:18:22;33.53;;;17.70;;
18776;SDS011;9517;51.174;4.160;2023-04-06T00:20:49;33.97;;;17.80;;
18776;SDS011;9517;51.174;4.160;2023-04-06T00:23:17;37.00;;;18.00;;
18776;SDS011;9517;51.174;4.160;2023-04-06T00:25:44;34.70;;;16.30;;
18776;SDS011;9517;51.174;4.160;2023-04-06T00:28:11;33.63;;;17.37;;
18776;SDS011;9517;51.174;4.160;2023-04-06T00:30:40;32.03;;;16.50;;
18776;SDS011;9517;51.174;4.160;2023-04-06T00:33:07;33.60;;;15.70;;
18776;SDS011;9517;51.174;4.160;2023-04-06T00:35:34;34.17;;;15.93;;
18776;SDS011;9517;51.174;4.160;2023-04-06T00:38:01;32.70;;;16.53;;
18776;SDS011;9517;51.174;4.160;2023-04-06T00:40:28;36.83;;;17.60;;
18776;SDS011;9517;51.174;4.160;2023-04-06T00:42:56;33.30;;;16.17;;
18776;SDS011;9517;51.174;4.160;2023-04-06T00:45:23;41.63;;;17.33;;
18776;SDS011;9517;51.174;4.160;2023-04-06T00:47:51;32.00;;;16.07;;
18776;SDS011;9517;51.174;4.160;2023-04-06T00:50:19;32.97;;;15.73;;
18776;SDS011;9517;51.174;4.160;2023-04-06T00:52:46;32.13;;;16.27;;
18776;SDS011;9517;51.174;4.160;2023-04-06T00:55:13;32.63;;;15.70;;
18776;SDS011;9517;51.174;4.160;2023-04-06T00:57:40;34.13;;;16.03;;
18776;SDS011;9517;51.174;4.160;2023-04-06T01:00:07;40.03;;;16.30;;
18776;SDS011;9517;51.174;4.160;2023-04-06T01:02:37;31.53;;;15.77;;
18776;SDS011;9517;51.174;4.160;2023-04-06T01:05:07;31.07;;;15.13;;
18776;SDS011;9517;51.174;4.160;2023-04-06T01:07:34;32.90;;;15.63;;
18776;SDS011;9517;51.174;4.160;2023-04-06T01:10:01;31.33;;;15.37;;
18776;SDS011;9517;51.174;4.160;2023-04-06T01:12:28;32.03;;;15.37;;
18776;SDS011;9517;51.174;4.160;2023-04-06T01:14:55;32.57;;;16.07;;
18776;SDS011;9517;51.174;4.160;2023-04-06T01:17:23;31.30;;;15.60;;
18776;SDS011;9517;51.174;4.160;2023-04-06T01:19:50;28.10;;;14.57;;
18776;SDS011;9517;51.174;4.160;2023-04-06T01:22:20;29.93;;;15.77;;
18776;SDS011;9517;51.174;4.160;2023-04-06T01:24:47;31.40;;;15.03;;
18776;SDS011;9517;51.174;4.160;2023-04-06T01:27:14;31.07;;;15.73;;
18776;SDS011;9517;51.174;4.160;2023-04-06T01:29:41;33.40;;;15.67;;
18776;SDS011;9517;51.174;4.160;2023-04-06T01:32:08;30.67;;;14.43;;
18776;SDS011;9517;51.174;4.160;2023-04-06T01:34:35;34.73;;;16.13;;
18776;SDS011;9517;51.174;4.160;2023-04-06T01:37:03;31.93;;;14.83;;
18776;SDS011;9517;51.174;4.160;2023-04-06T01:39:31;33.20;;;15.53;;
18776;SDS011;9517;51.174;4.160;2023-04-06T01:41:58;33.10;;;15.13;;
18776;SDS011;9517;51.174;4.160;2023-04-06T01:44:25;31.27;;;15.07;;
18776;SDS011;9517;51.174;4.160;2023-04-06T01:46:55;28.63;;;14.93;;
18776;SDS011;9517;51.174;4.160;2023-04-06T01:49:22;32.23;;;14.73;;
18776;SDS011;9517;51.174;4.160;2023-04-06T01:51:49;31.50;;;14.90;;
18776;SDS011;9517;51.174;4.160;2023-04-06T01:54:17;33.03;;;15.63;;
18776;SDS011;9517;51.174;4.160;2023-04-06T01:56:46;31.73;;;15.63;;
18776;SDS011;9517;51.174;4.160;2023-04-06T01:59:15;29.77;;;15.03;;
18776;SDS011;9517;51.174;4.160;2023-04-06T02:01:42;35.27;;;15.57;;
18776;SDS011;9517;51.174;4.160;2023-04-06T02:04:10;39.57;;;16.23;;
18776;SDS011;9517;51.174;4.160;2023-04-06T02:06:38;34.00;;;15.97;;
18776;SDS011;9517;51.174;4.160;2023-04-06T02:09:05;33.37;;;15.47;;
18776;SDS011;9517;51.174;4.160;2023-04-06T02:11:32;33.30;;;16.37;;
18776;SDS011;9517;51.174;4.160;2023-04-06T02:14:01;34.60;;;16.20;;
18776;SDS011;9517;51.174;4.160;2023-04-06T02:16:29;33.63;;;15.57;;
18776;SDS011;9517;51.174;4.160;2023-04-06T02:18:56;33.67;;;15.33;;
18776;SDS011;9517;51.174;4.160;2023-04-06T02:21:23;37.07;;;14.77;;
18776;SDS011;9517;51.174;4.160;2023-04-06T02:23:50;32.43;;;16.17;;
18776;SDS011;9517;51.174;4.160;2023-04-06T02:26:17;35.53;;;16.43;;
18776;SDS011;9517;51.174;4.160;2023-04-06T02:28:45;29.87;;;15.30;;
18776;SDS011;9517;51.174;4.160;2023-04-06T02:31:13;32.27;;;16.87;;
18776;SDS011;9517;51.174;4.160;2023-04-06T02:33:41;34.20;;;16.03;;
18776;SDS011;9517;51.174;4.160;2023-04-06T02:36:08;34.70;;;16.83;;
18776;SDS011;9517;51.174;4.160;2023-04-06T02:38:35;32.80;;;17.43;;
18776;SDS011;9517;51.174;4.160;2023-04-06T02:41:02;34.17;;;16.77;;
18776;SDS011;9517;51.174;4.160;2023-04-06T02:43:29;40.30;;;17.70;;
18776;SDS011;9517;51.174;4.160;2023-04-06T02:45:56;35.93;;;16.87;;
18776;SDS011;9517;51.174;4.160;2023-04-06T02:48:25;36.17;;;17.83;;
18776;SDS011;9517;51.174;4.160;2023-04-06T02:50:52;34.47;;;17.27;;
18776;SDS011;9517;51.174;4.160;2023-04-06T02:53:19;34.10;;;17.50;;
18776;SDS011;9517;51.174;4.160;2023-04-06T02:55:46;35.67;;;17.57;;
18776;SDS011;9517;51.174;4.160;2023-04-06T02:58:13;32.67;;;17.10;;
18776;SDS011;9517;51.174;4.160;2023-04-06T03:00:41;37.40;;;18.03;;
18776;SDS011;9517;51.174;4.160;2023-04-06T03:03:08;35.80;;;18.40;;
18776;SDS011;9517;51.174;4.160;2023-04-06T03:05:37;40.43;;;18.27;;
18776;SDS011;9517;51.174;4.160;2023-04-06T03:08:04;37.00;;;19.10;;
18776;SDS011;9517;51.174;4.160;2023-04-06T03:10:31;38.13;;;17.90;;
18776;SDS011;9517;51.174;4.160;2023-04-06T03:12:58;41.33;;;19.03;;
18776;SDS011;9517;51.174;4.160;2023-04-06T03:15:25;35.90;;;17.33;;
18776;SDS011;9517;51.174;4.160;2023-04-06T03:17:52;38.33;;;18.27;;
18776;SDS011;9517;51.174;4.160;2023-04-06T03:20:19;35.47;;;18.03;;
18776;SDS011;9517;51.174;4.160;2023-04-06T03:22:47;36.37;;;18.30;;
18776;SDS011;9517;51.174;4.160;2023-04-06T03:25:15;31.43;;;17.27;;
18776;SDS011;9517;51.174;4.160;2023-04-06T03:27:42;35.50;;;17.97;;
18776;SDS011;9517;51.174;4.160;2023-04-06T03:30:09;36.63;;;18.53;;
18776;SDS011;9517;51.174;4.160;2023-04-06T03:32:37;35.07;;;17.30;;
18776;SDS011;9517;51.174;4.160;2023-04-06T03:35:04;37.10;;;18.37;;
18776;SDS011;9517;51.174;4.160;2023-04-06T03:37:32;36.13;;;18.23;;
18776;SDS011;9517;51.174;4.160;2023-04-06T03:40:00;37.50;;;19.07;;
18776;SDS011;9517;51.174;4.160;2023-04-06T03:42:28;38.00;;;18.80;;
18776;SDS011;9517;51.174;4.160;2023-04-06T03:44:56;32.60;;;16.57;;
18776;SDS011;9517;51.174;4.160;2023-04-06T03:47:23;39.33;;;18.80;;
18776;SDS011;9517;51.174;4.160;2023-04-06T03:49:50;34.60;;;17.93;;
18776;SDS011;9517;51.174;4.160;2023-04-06T03:52:18;35.20;;;18.30;;
18776;SDS011;9517;51.174;4.160;2023-04-06T03:54:45;36.77;;;17.90;;
18776;SDS011;9517;51.174;4.160;2023-04-06T03:57:13;33.37;;;16.33;;
18776;SDS011;9517;51.174;4.160;2023-04-06T03:59:40;35.87;;;19.10;;
18776;SDS011;9517;51.174;4.160;2023-04-06T04:02:08;36.33;;;18.23;;
18776;SDS011;9517;51.174;4.160;2023-04-06T04:04:35;35.87;;;18.90;;
18776;SDS011;9517;51.174;4.160;2023-04-06T04:07:02;34.53;;;17.80;;
18776;SDS011;9517;51.174;4.160;2023-04-06T04:09:29;39.87;;;19.53;;
18776;SDS011;9517;51.174;4.160;2023-04-06T04:11:56;42.17;;;18.10;;
18776;SDS011;9517;51.174;4.160;2023-04-06T04:14:25;34.33;;;18.23;;
18776;SDS011;9517;51.174;4.160;2023-04-06T04:16:52;38.93;;;19.63;;
18776;SDS011;9517;51.174;4.160;2023-04-06T04:19:19;34.87;;;18.87;;
18776;SDS011;9517;51.174;4.160;2023-04-06T04:21:46;40.00;;;19.77;;
18776;SDS011;9517;51.174;4.160;2023-04-06T04:24:13;43.67;;;19.37;;
18776;SDS011;9517;51.174;4.160;2023-04-06T04:26:41;36.27;;;18.17;;
18776;SDS011;9517;51.174;4.160;2023-04-06T04:29:08;37.60;;;19.63;;
18776;SDS011;9517;51.174;4.160;2023-04-06T04:31:36;41.37;;;20.40;;
18776;SDS011;9517;51.174;4.160;2023-04-06T04:34:04;36.83;;;19.37;;
18776;SDS011;9517;51.174;4.160;2023-04-06T04:36:31;39.50;;;20.50;;
18776;SDS011;9517;51.174;4.160;2023-04-06T04:38:58;40.23;;;20.13;;
18776;SDS011;9517;51.174;4.160;2023-04-06T04:41:26;40.60;;;19.90;;
18776;SDS011;9517;51.174;4.160;2023-04-06T04:43:54;41.07;;;20.10;;
18776;SDS011;9517;51.174;4.160;2023-04-06T04:46:21;40.60;;;19.97;;
18776;SDS011;9517;51.174;4.160;2023-04-06T04:48:49;44.17;;;21.87;;
18776;SDS011;9517;51.174;4.160;2023-04-06T04:51:17;41.10;;;20.87;;
18776;SDS011;9517;51.174;4.160;2023-04-06T04:53:44;41.70;;;20.00;;
18776;SDS011;9517;51.174;4.160;2023-04-06T04:56:11;36.00;;;20.27;;
18776;SDS011;9517;51.174;4.160;2023-04-06T04:58:38;41.83;;;21.30;;
18776;SDS011;9517;51.174;4.160;2023-04-06T05:01:06;41.30;;;20.47;;
18776;SDS011;9517;51.174;4.160;2023-04-06T05:03:33;49.23;;;23.37;;
18776;SDS011;9517;51.174;4.160;2023-04-06T05:06:02;44.23;;;21.03;;
18776;SDS011;9517;51.174;4.160;2023-04-06T05:08:29;42.37;;;21.87;;
18776;SDS011;9517;51.174;4.160;2023-04-06T05:10:56;42.43;;;21.90;;
18776;SDS011;9517;51.174;4.160;2023-04-06T05:13:24;43.80;;;22.90;;
18776;SDS011;9517;51.174;4.160;2023-04-06T05:15:51;42.93;;;22.33;;
18776;SDS011;9517;51.174;4.160;2023-04-06T05:18:19;43.23;;;22.83;;
18776;SDS011;9517;51.174;4.160;2023-04-06T05:20:46;42.47;;;22.20;;
18776;SDS011;9517;51.174;4.160;2023-04-06T05:23:16;44.23;;;23.30;;
18776;SDS011;9517;51.174;4.160;2023-04-06T05:25:43;41.20;;;23.37;;
18776;SDS011;9517;51.174;4.160;2023-04-06T05:28:10;42.87;;;23.37;;
18776;SDS011;9517;51.174;4.160;2023-04-06T05:30:39;52.27;;;23.07;;
18776;SDS011;9517;51.174;4.160;2023-04-06T05:33:06;47.97;;;25.67;;
18776;SDS011;9517;51.174;4.160;2023-04-06T05:35:33;45.87;;;23.90;;
18776;SDS011;9517;51.174;4.160;2023-04-06T05:38:00;45.63;;;24.30;;
18776;SDS011;9517;51.174;4.160;2023-04-06T05:40:29;47.17;;;24.60;;
18776;SDS011;9517;51.174;4.160;2023-04-06T05:42:56;49.50;;;24.93;;
18776;SDS011;9517;51.174;4.160;2023-04-06T05:45:24;53.67;;;25.07;;
18776;SDS011;9517;51.174;4.160;2023-04-06T05:47:51;45.87;;;24.43;;
18776;SDS011;9517;51.174;4.160;2023-04-06T05:50:18;45.83;;;25.37;;
18776;SDS011;9517;51.174;4.160;2023-04-06T05:52:45;48.30;;;25.33;;
18776;SDS011;9517;51.174;4.160;2023-04-06T05:55:13;46.43;;;24.70;;
18776;SDS011;9517;51.174;4.160;2023-04-06T05:57:41;47.40;;;25.97;;
18776;SDS011;9517;51.174;4.160;2023-04-06T06:00:09;51.00;;;26.83;;
18776;SDS011;9517;51.174;4.160;2023-04-06T06:02:37;49.10;;;25.57;;
18776;SDS011;9517;51.174;4.160;2023-04-06T06:05:07;47.60;;;25.80;;
18776;SDS011;9517;51.174;4.160;2023-04-06T06:07:35;51.63;;;26.60;;
18776;SDS011;9517;51.174;4.160;2023-04-06T06:10:02;51.43;;;26.83;;
18776;SDS011;9517;51.174;4.160;2023-04-06T06:12:29;48.93;;;25.40;;
18776;SDS011;9517;51.174;4.160;2023-04-06T06:14:58;42.93;;;24.67;;
18776;SDS011;9517;51.174;4.160;2023-04-06T06:17:25;50.47;;;26.57;;
18776;SDS011;9517;51.174;4.160;2023-04-06T06:19:52;47.53;;;26.53;;
18776;SDS011;9517;51.174;4.160;2023-04-06T06:22:20;45.47;;;25.90;;
18776;SDS011;9517;51.174;4.160;2023-04-06T06:24:47;43.60;;;26.47;;
18776;SDS011;9517;51.174;4.160;2023-04-06T06:27:14;49.37;;;26.93;;
18776;SDS011;9517;51.174;4.160;2023-04-06T06:29:42;50.77;;;27.13;;
18776;SDS011;9517;51.174;4.160;2023-04-06T06:32:10;47.03;;;26.43;;
18776;SDS011;9517;51.174;4.160;2023-04-06T06:34:37;42.83;;;24.13;;
18776;SDS011;9517;51.174;4.160;2023-04-06T06:37:05;48.90;;;26.50;;
18776;SDS011;9517;51.174;4.160;2023-04-06T06:39:32;48.10;;;26.70;;
18776;SDS011;9517;51.174;4.160;2023-04-06T06:41:59;44.40;;;25.73;;
18776;SDS011;9517;51.174;4.160;2023-04-06T06:44:26;52.77;;;27.67;;
18776;SDS011;9517;51.174;4.160;2023-04-06T06:46:54;54.77;;;28.33;;
18776;SDS011;9517;51.174;4.160;2023-04-06T06:49:22;49.93;;;27.30;;
18776;SDS011;9517;51.174;4.160;2023-04-06T06:51:49;49.57;;;26.73;;
18776;SDS011;9517;51.174;4.160;2023-04-06T06:54:16;50.53;;;28.33;;
18776;SDS011;9517;51.174;4.160;2023-04-06T06:56:44;51.10;;;27.20;;
18776;SDS011;9517;51.174;4.160;2023-04-06T06:59:11;47.20;;;25.97;;
18776;SDS011;9517;51.174;4.160;2023-04-06T07:01:39;50.80;;;26.47;;
18776;SDS011;9517;51.174;4.160;2023-04-06T07:04:06;52.60;;;27.43;;
18776;SDS011;9517;51.174;4.160;2023-04-06T07:06:36;51.97;;;26.13;;
18776;SDS011;9517;51.174;4.160;2023-04-06T07:09:03;45.73;;;24.20;;
18776;SDS011;9517;51.174;4.160;2023-04-06T07:11:30;42.70;;;23.63;;
18776;SDS011;9517;51.174;4.160;2023-04-06T07:13:57;49.20;;;25.03;;
18776;SDS011;9517;51.174;4.160;2023-04-06T07:16:25;44.90;;;23.87;;
18776;SDS011;9517;51.174;4.160;2023-04-06T07:18:52;40.10;;;21.40;;
18776;SDS011;9517;51.174;4.160;2023-04-06T07:21:19;41.13;;;21.17;;
18776;SDS011;9517;51.174;4.160;2023-04-06T07:23:48;34.83;;;20.03;;
18776;SDS011;9517;51.174;4.160;2023-04-06T07:26:15;39.80;;;19.30;;
18776;SDS011;9517;51.174;4.160;2023-04-06T07:28:43;41.53;;;20.20;;
18776;SDS011;9517;51.174;4.160;2023-04-06T07:31:10;37.63;;;19.43;;
18776;SDS011;9517;51.174;4.160;2023-04-06T07:33:37;36.43;;;18.50;;
18776;SDS011;9517;51.174;4.160;2023-04-06T07:36:05;36.97;;;18.67;;
18776;SDS011;9517;51.174;4.160;2023-04-06T07:38:32;35.10;;;19.53;;
18776;SDS011;9517;51.174;4.160;2023-04-06T07:41:01;39.73;;;18.67;;
18776;SDS011;9517;51.174;4.160;2023-04-06T07:43:30;32.43;;;17.17;;
18776;SDS011;9517;51.174;4.160;2023-04-06T07:45:57;31.77;;;16.90;;
18776;SDS011;9517;51.174;4.160;2023-04-06T07:48:25;27.40;;;16.13;;
18776;SDS011;9517;51.174;4.160;2023-04-06T07:50:59;30.47;;;15.03;;
18776;SDS011;9517;51.174;4.160;2023-04-06T07:53:27;26.47;;;13.80;;
18776;SDS011;9517;51.174;4.160;2023-04-06T07:55:54;29.67;;;15.23;;
18776;SDS011;9517;51.174;4.160;2023-04-06T07:58:23;26.70;;;13.70;;
18776;SDS011;9517;51.174;4.160;2023-04-06T08:00:51;24.90;;;12.77;;
18776;SDS011;9517;51.174;4.160;2023-04-06T08:03:19;25.27;;;14.43;;
18776;SDS011;9517;51.174;4.160;2023-04-06T08:05:50;26.20;;;13.87;;
18776;SDS011;9517;51.174;4.160;2023-04-06T08:08:18;28.83;;;13.60;;
18776;SDS011;9517;51.174;4.160;2023-04-06T08:10:46;29.77;;;14.83;;
18776;SDS011;9517;51.174;4.160;2023-04-06T08:13:13;30.10;;;13.93;;
18776;SDS011;9517;51.174;4.160;2023-04-06T08:15:42;26.40;;;14.00;;
18776;SDS011;9517;51.174;4.160;2023-04-06T08:18:09;28.93;;;14.13;;
18776;SDS011;9517;51.174;4.160;2023-04-06T08:20:37;25.33;;;12.97;;
18776;SDS011;9517;51.174;4.160;2023-04-06T08:23:04;24.23;;;13.00;;
18776;SDS011;9517;51.174;4.160;2023-04-06T08:25:35;26.07;;;13.03;;
18776;SDS011;9517;51.174;4.160;2023-04-06T08:28:02;26.97;;;13.27;;
18776;SDS011;9517;51.174;4.160;2023-04-06T08:30:29;27.90;;;13.77;;
18776;SDS011;9517;51.174;4.160;2023-04-06T08:32:58;20.83;;;10.93;;
18776;SDS011;9517;51.174;4.160;2023-04-06T08:35:25;25.03;;;12.60;;
18776;SDS011;9517;51.174;4.160;2023-04-06T08:37:53;27.50;;;11.50;;
18776;SDS011;9517;51.174;4.160;2023-04-06T08:40:21;21.83;;;11.30;;
18776;SDS011;9517;51.174;4.160;2023-04-06T08:42:50;26.40;;;12.07;;
18776;SDS011;9517;51.174;4.160;2023-04-06T08:45:18;25.03;;;11.57;;
18776;SDS011;9517;51.174;4.160;2023-04-06T08:47:46;23.20;;;11.37;;
18776;SDS011;9517;51.174;4.160;2023-04-06T08:50:16;24.17;;;11.13;;
18776;SDS011;9517;51.174;4.160;2023-04-06T08:52:44;21.90;;;9.97;;
18776;SDS011;9517;51.174;4.160;2023-04-06T08:55:14;30.33;;;11.27;;
18776;SDS011;9517;51.174;4.160;2023-04-06T08:57:41;24.90;;;11.13;;
18776;SDS011;9517;51.174;4.160;2023-04-06T09:00:09;23.13;;;11.40;;
18776;SDS011;9517;51.174;4.160;2023-04-06T09:02:38;29.97;;;11.73;;
18776;SDS011;9517;51.174;4.160;2023-04-06T09:05:07;23.80;;;10.53;;
18776;SDS011;9517;51.174;4.160;2023-04-06T09:07:36;22.83;;;10.77;;
18776;SDS011;9517;51.174;4.160;2023-04-06T09:10:04;21.80;;;10.40;;
18776;SDS011;9517;51.174;4.160;2023-04-06T09:12:32;24.73;;;11.93;;
18776;SDS011;9517;51.174;4.160;2023-04-06T09:15:00;29.50;;;11.73;;
18776;SDS011;9517;51.174;4.160;2023-04-06T09:17:28;25.03;;;11.00;;
18776;SDS011;9517;51.174;4.160;2023-04-06T09:19:57;22.13;;;10.43;;
18776;SDS011;9517;51.174;4.160;2023-04-06T09:22:34;25.70;;;11.53;;
18776;SDS011;9517;51.174;4.160;2023-04-06T09:25:03;21.23;;;11.00;;
18776;SDS011;9517;51.174;4.160;2023-04-06T09:27:32;24.67;;;11.63;;
18776;SDS011;9517;51.174;4.160;2023-04-06T09:30:04;23.47;;;11.50;;
18776;SDS011;9517;51.174;4.160;2023-04-06T09:32:43;23.70;;;11.47;;
18776;SDS011;9517;51.174;4.160;2023-04-06T09:35:12;26.70;;;12.90;;
18776;SDS011;9517;51.174;4.160;2023-04-06T09:37:41;24.53;;;11.90;;
18776;SDS011;9517;51.174;4.160;2023-04-06T09:40:08;24.23;;;11.97;;
18776;SDS011;9517;51.174;4.160;2023-04-06T09:42:36;25.20;;;12.00;;
18776;SDS011;9517;51.174;4.160;2023-04-06T09:45:04;28.30;;;12.20;;
18776;SDS011;9517;51.174;4.160;2023-04-06T09:47:32;24.10;;;13.17;;
18776;SDS011;9517;51.174;4.160;2023-04-06T09:50:02;23.83;;;12.93;;
18776;SDS011;9517;51.174;4.160;2023-04-06T09:52:31;24.97;;;11.73;;
18776;SDS011;9517;51.174;4.160;2023-04-06T09:55:01;29.63;;;12.23;;
18776;SDS011;9517;51.174;4.160;2023-04-06T09:57:32;31.37;;;13.90;;
18776;SDS011;9517;51.174;4.160;2023-04-06T10:00:04;26.50;;;12.53;;
18776;SDS011;9517;51.174;4.160;2023-04-06T10:02:38;28.20;;;13.70;;
18776;SDS011;9517;51.174;4.160;2023-04-06T10:05:12;26.90;;;12.97;;
18776;SDS011;9517;51.174;4.160;2023-04-06T10:07:45;30.50;;;14.43;;
18776;SDS011;9517;51.174;4.160;2023-04-06T10:10:17;29.57;;;13.50;;
18776;SDS011;9517;51.174;4.160;2023-04-06T10:12:45;27.23;;;12.63;;
18776;SDS011;9517;51.174;4.160;2023-04-06T10:15:14;27.50;;;13.67;;
18776;SDS011;9517;51.174;4.160;2023-04-06T10:17:42;34.43;;;13.70;;
18776;SDS011;9517;51.174;4.160;2023-04-06T10:20:11;28.23;;;13.30;;
18776;SDS011;9517;51.174;4.160;2023-04-06T10:22:49;27.33;;;13.50;;
18776;SDS011;9517;51.174;4.160;2023-04-06T10:25:29;29.57;;;12.13;;
18776;SDS011;9517;51.174;4.160;2023-04-06T10:28:00;24.03;;;12.80;;
18776;SDS011;9517;51.174;4.160;2023-04-06T10:30:28;26.23;;;13.77;;
18776;SDS011;9517;51.174;4.160;2023-04-06T10:32:55;27.90;;;12.60;;
18776;SDS011;9517;51.174;4.160;2023-04-06T10:35:22;27.63;;;14.33;;
18776;SDS011;9517;51.174;4.160;2023-04-06T10:37:51;26.17;;;13.70;;
18776;SDS011;9517;51.174;4.160;2023-04-06T10:40:19;27.13;;;13.40;;
18776;SDS011;9517;51.174;4.160;2023-04-06T10:42:50;27.10;;;14.83;;
18776;SDS011;9517;51.174;4.160;2023-04-06T10:45:19;30.43;;;13.93;;
18776;SDS011;9517;51.174;4.160;2023-04-06T10:47:47;30.87;;;14.97;;
18776;SDS011;9517;51.174;4.160;2023-04-06T10:50:15;24.70;;;13.23;;
18776;SDS011;9517;51.174;4.160;2023-04-06T10:52:43;26.23;;;13.97;;
18776;SDS011;9517;51.174;4.160;2023-04-06T10:55:12;26.57;;;14.20;;
18776;SDS011;9517;51.174;4.160;2023-04-06T10:57:40;28.27;;;14.63;;
18776;SDS011;9517;51.174;4.160;2023-04-06T11:00:11;31.83;;;15.23;;
18776;SDS011;9517;51.174;4.160;2023-04-06T11:02:39;27.90;;;14.57;;
18776;SDS011;9517;51.174;4.160;2023-04-06T11:05:07;27.73;;;14.73;;
18776;SDS011;9517;51.174;4.160;2023-04-06T11:07:34;30.20;;;15.50;;
18776;SDS011;9517;51.174;4.160;2023-04-06T11:10:02;33.20;;;15.53;;
18776;SDS011;9517;51.174;4.160;2023-04-06T11:12:29;26.83;;;15.13;;
18776;SDS011;9517;51.174;4.160;2023-04-06T11:14:57;32.10;;;16.07;;
18776;SDS011;9517;51.174;4.160;2023-04-06T11:17:31;39.43;;;15.90;;
18776;SDS011;9517;51.174;4.160;2023-04-06T11:19:58;32.07;;;15.37;;
18776;SDS011;9517;51.174;4.160;2023-04-06T11:22:26;34.10;;;15.57;;
18776;SDS011;9517;51.174;4.160;2023-04-06T11:25:04;34.13;;;15.53;;
18776;SDS011;9517;51.174;4.160;2023-04-06T11:27:34;30.03;;;15.33;;
18776;SDS011;9517;51.174;4.160;2023-04-06T11:30:01;29.97;;;14.77;;
18776;SDS011;9517;51.174;4.160;2023-04-06T11:32:38;31.07;;;15.93;;
18776;SDS011;9517;51.174;4.160;2023-04-06T11:35:07;32.70;;;15.93;;
18776;SDS011;9517;51.174;4.160;2023-04-06T11:37:37;32.17;;;15.20;;
18776;SDS011;9517;51.174;4.160;2023-04-06T11:40:07;33.30;;;16.60;;
18776;SDS011;9517;51.174;4.160;2023-04-06T11:42:35;29.83;;;14.10;;
18776;SDS011;9517;51.174;4.160;2023-04-06T11:45:03;31.60;;;16.60;;
18776;SDS011;9517;51.174;4.160;2023-04-06T11:47:35;32.33;;;16.30;;
18776;SDS011;9517;51.174;4.160;2023-04-06T11:50:06;25.03;;;14.50;;
18776;SDS011;9517;51.174;4.160;2023-04-06T11:52:35;28.90;;;15.93;;
18776;SDS011;9517;51.174;4.160;2023-04-06T11:55:10;25.80;;;14.53;;
18776;SDS011;9517;51.174;4.160;2023-04-06T11:57:38;25.57;;;14.37;;
18776;SDS011;9517;51.174;4.160;2023-04-06T12:00:06;25.50;;;14.77;;
18776;SDS011;9517;51.174;4.160;2023-04-06T12:02:36;25.47;;;14.50;;
18776;SDS011;9517;51.174;4.160;2023-04-06T12:05:04;27.10;;;13.73;;
18776;SDS011;9517;51.174;4.160;2023-04-06T12:07:33;26.10;;;13.87;;
18776;SDS011;9517;51.174;4.160;2023-04-06T12:10:01;22.17;;;11.90;;
18776;SDS011;9517;51.174;4.160;2023-04-06T12:12:30;22.70;;;12.20;;
18776;SDS011;9517;51.174;4.160;2023-04-06T12:14:57;23.87;;;12.00;;
18776;SDS011;9517;51.174;4.160;2023-04-06T12:17:25;20.03;;;10.77;;
18776;SDS011;9517;51.174;4.160;2023-04-06T12:19:54;24.10;;;11.17;;
18776;SDS011;9517;51.174;4.160;2023-04-06T12:22:21;19.80;;;10.07;;
18776;SDS011;9517;51.174;4.160;2023-04-06T12:24:48;21.67;;;12.03;;
18776;SDS011;9517;51.174;4.160;2023-04-06T12:27:15;19.97;;;10.57;;
18776;SDS011;9517;51.174;4.160;2023-04-06T12:29:42;21.13;;;11.13;;
18776;SDS011;9517;51.174;4.160;2023-04-06T12:32:09;24.33;;;10.73;;
18776;SDS011;9517;51.174;4.160;2023-04-06T12:34:37;21.23;;;10.37;;
18776;SDS011;9517;51.174;4.160;2023-04-06T12:37:06;20.53;;;10.63;;
18776;SDS011;9517;51.174;4.160;2023-04-06T12:39:33;19.70;;;9.90;;
18776;SDS011;9517;51.174;4.160;2023-04-06T12:42:01;19.97;;;9.63;;
18776;SDS011;9517;51.174;4.160;2023-04-06T12:44:29;19.80;;;10.40;;
18776;SDS011;9517;51.174;4.160;2023-04-06T12:46:56;23.50;;;10.37;;
18776;SDS011;9517;51.174;4.160;2023-04-06T12:49:23;23.43;;;10.33;;
18776;SDS011;9517;51.174;4.160;2023-04-06T12:51:52;16.53;;;9.53;;
18776;SDS011;9517;51.174;4.160;2023-04-06T12:54:22;22.20;;;10.73;;
18776;SDS011;9517;51.174;4.160;2023-04-06T12:56:51;17.77;;;9.50;;
18776;SDS011;9517;51.174;4.160;2023-04-06T12:59:20;19.97;;;10.90;;
18776;SDS011;9517;51.174;4.160;2023-04-06T13:01:50;19.60;;;10.93;;
18776;SDS011;9517;51.174;4.160;2023-04-06T13:04:17;18.60;;;10.87;;
18776;SDS011;9517;51.174;4.160;2023-04-06T13:06:44;20.60;;;11.23;;
18776;SDS011;9517;51.174;4.160;2023-04-06T13:09:12;19.37;;;10.33;;
18776;SDS011;9517;51.174;4.160;2023-04-06T13:11:40;21.93;;;11.53;;
18776;SDS011;9517;51.174;4.160;2023-04-06T13:14:08;21.20;;;11.30;;
18776;SDS011;9517;51.174;4.160;2023-04-06T13:16:35;21.70;;;11.63;;
18776;SDS011;9517;51.174;4.160;2023-04-06T13:19:02;24.27;;;11.33;;
18776;SDS011;9517;51.174;4.160;2023-04-06T13:21:30;19.43;;;10.50;;
18776;SDS011;9517;51.174;4.160;2023-04-06T13:23:57;21.13;;;12.17;;
18776;SDS011;9517;51.174;4.160;2023-04-06T13:26:25;22.30;;;11.57;;
18776;SDS011;9517;51.174;4.160;2023-04-06T13:28:53;21.70;;;12.80;;
18776;SDS011;9517;51.174;4.160;2023-04-06T13:31:21;22.07;;;12.47;;
18776;SDS011;9517;51.174;4.160;2023-04-06T13:33:49;26.83;;;12.40;;
18776;SDS011;9517;51.174;4.160;2023-04-06T13:36:16;23.67;;;13.23;;
18776;SDS011;9517;51.174;4.160;2023-04-06T13:38:43;26.87;;;14.00;;
18776;SDS011;9517;51.174;4.160;2023-04-06T13:41:10;25.33;;;14.33;;
18776;SDS011;9517;51.174;4.160;2023-04-06T13:43:45;24.70;;;14.87;;
18776;SDS011;9517;51.174;4.160;2023-04-06T13:46:14;23.77;;;13.07;;
18776;SDS011;9517;51.174;4.160;2023-04-06T13:48:41;25.70;;;15.57;;
18776;SDS011;9517;51.174;4.160;2023-04-06T13:51:09;26.63;;;14.57;;
18776;SDS011;9517;51.174;4.160;2023-04-06T13:53:36;25.90;;;14.57;;
18776;SDS011;9517;51.174;4.160;2023-04-06T13:56:03;32.53;;;15.57;;
18776;SDS011;9517;51.174;4.160;2023-04-06T13:58:31;30.10;;;15.27;;
18776;SDS011;9517;51.174;4.160;2023-04-06T14:01:01;26.40;;;15.10;;
18776;SDS011;9517;51.174;4.160;2023-04-06T14:03:30;24.10;;;14.83;;
18776;SDS011;9517;51.174;4.160;2023-04-06T14:05:57;26.20;;;15.37;;
18776;SDS011;9517;51.174;4.160;2023-04-06T14:08:25;30.10;;;16.67;;
18776;SDS011;9517;51.174;4.160;2023-04-06T14:10:52;27.17;;;16.20;;
18776;SDS011;9517;51.174;4.160;2023-04-06T14:13:20;30.73;;;15.70;;
18776;SDS011;9517;51.174;4.160;2023-04-06T14:15:52;24.97;;;15.43;;
18776;SDS011;9517;51.174;4.160;2023-04-06T14:18:20;26.53;;;16.87;;
18776;SDS011;9517;51.174;4.160;2023-04-06T14:20:54;27.70;;;17.50;;
18776;SDS011;9517;51.174;4.160;2023-04-06T14:23:22;29.77;;;17.10;;
18776;SDS011;9517;51.174;4.160;2023-04-06T14:25:50;30.33;;;18.27;;
18776;SDS011;9517;51.174;4.160;2023-04-06T14:28:18;31.07;;;18.33;;
18776;SDS011;9517;51.174;4.160;2023-04-06T14:30:47;27.60;;;17.93;;
18776;SDS011;9517;51.174;4.160;2023-04-06T14:33:14;28.70;;;17.10;;
18776;SDS011;9517;51.174;4.160;2023-04-06T14:35:41;32.03;;;16.93;;
18776;SDS011;9517;51.174;4.160;2023-04-06T14:38:09;33.87;;;17.43;;
18776;SDS011;9517;51.174;4.160;2023-04-06T14:40:37;30.20;;;16.07;;